Time;durP1;ratioP1;P1;durP2;ratioP2;P2;SDS_P1;SDS_P2;PMS_P1;PMS_P2;Temp;Humidity;BMP_temperature;BMP_pressure;BME280_temperature;BME280_humidity;BME280_pressure;Samples;Min_cycle;Max_cycle;Signal;HPM_P1;HPM_P2
2021/09/28 12:35:17;;;;;;;;;;;;;;;19.41;42.13;99441.91;1982494;47;3844329848;31
2021/09/28 12:37:49;;;;;;;3.33;1.50;;;;;;;19.58;42.35;99447.38;2620262;54;19953;-64
2021/09/28 12:40:25;;;;;;;4.30;1.90;;;;;;;19.72;41.83;99432.72;2621131;54;20027;-65
2021/09/28 12:43:04;;;;;;;3.47;2.10;;;;;;;19.81;41.49;99427.78;2621777;54;20038;-64
2021/09/28 12:45:46;;;;;;;4.32;1.30;;;;;;;19.89;41.39;99426.59;2621278;54;20042;-65
2021/09/28 12:48:17;;;;;;;4.10;1.30;;;;;;;20.00;41.70;99425.72;2619373;54;20030;-64
2021/09/28 12:50:49;;;;;;;2.67;1.40;;;;;;;20.11;41.53;99424.88;2619710;39;20445;-64
2021/09/28 12:53:19;;;;;;;4.00;1.30;;;;;;;20.02;41.11;99424.44;2620236;39;20437;-64
2021/09/28 12:55:48;;;;;;;5.88;1.83;;;;;;;19.73;41.19;99415.56;2619107;54;20554;-64
2021/09/28 12:58:18;;;;;;;6.80;1.83;;;;;;;19.61;41.64;99420.13;2619145;54;20031;-64
2021/09/28 13:00:48;;;;;;;5.05;1.67;;;;;;;19.70;42.36;99416.03;2619573;39;20425;-64
2021/09/28 13:03:19;;;;;;;3.15;1.40;;;;;;;19.77;41.71;99414.03;2619579;54;20057;-64
2021/09/28 13:05:56;;;;;;;4.90;2.03;;;;;;;19.83;41.76;99422.16;2619225;39;20446;-65
2021/09/28 13:08:28;;;;;;;6.00;2.85;;;;;;;19.95;42.20;99420.25;2618860;54;20037;-65
2021/09/28 13:11:00;;;;;;;5.90;2.60;;;;;;;20.02;41.38;99413.72;2618487;54;20041;-64
2021/09/28 13:13:32;;;;;;;5.97;1.88;;;;;;;20.00;41.57;99415.00;2619070;54;20581;-66
2021/09/28 13:16:06;;;;;;;3.58;1.38;;;;;;;19.89;41.76;99413.19;2619072;54;20030;-64
2021/09/28 13:18:38;;;;;;;4.95;1.90;;;;;;;19.93;41.97;99417.03;2619098;54;20026;-65
2021/09/28 13:21:10;;;;;;;4.57;2.00;;;;;;;20.00;41.74;99407.78;2618839;54;20038;-65
2021/09/28 13:23:40;;;;;;;3.42;1.10;;;;;;;19.82;41.21;99405.25;2618574;54;20041;-65
2021/09/28 13:26:10;;;;;;;2.00;0.93;;;;;;;19.75;42.11;99401.91;2618918;54;20045;-65
2021/09/28 13:28:40;;;;;;;4.05;1.40;;;;;;;19.72;42.46;99400.53;2618992;54;20114;-65
2021/09/28 13:31:09;;;;;;;5.47;1.40;;;;;;;19.82;42.55;99402.56;2618285;47;20026;-65
2021/09/28 13:33:39;;;;;;;4.15;1.40;;;;;;;19.78;42.22;99396.88;2618578;47;20034;-65
2021/09/28 13:36:23;;;;;;;4.88;1.77;;;;;;;19.64;43.07;99389.34;2618392;54;20042;-65
2021/09/28 13:38:53;;;;;;;6.20;1.50;;;;;;;19.56;42.77;99379.78;2618635;54;20023;-65
2021/09/28 13:41:23;;;;;;;5.32;1.67;;;;;;;19.57;42.95;99381.41;2618685;54;20026;-65
2021/09/28 13:43:53;;;;;;;7.45;2.47;;;;;;;19.67;42.84;99380.81;2619305;39;20407;-65
2021/09/28 13:46:23;;;;;;;3.97;2.08;;;;;;;19.62;42.79;99386.06;2618566;54;20539;-65
2021/09/28 13:48:53;;;;;;;6.80;1.95;;;;;;;19.62;42.99;99392.25;2619004;54;20069;-66
2021/09/28 13:51:25;;;;;;;5.55;1.58;;;;;;;19.56;42.45;99387.81;2618023;47;20031;-65
2021/09/28 13:53:55;;;;;;;4.22;1.10;;;;;;;19.42;42.32;99379.19;2617994;54;20038;-65
2021/09/28 13:56:25;;;;;;;4.13;1.33;;;;;;;19.29;42.53;99382.97;2618344;54;20043;-66
2021/09/28 13:59:00;;;;;;;6.90;2.35;;;;;;;19.36;43.11;99376.66;2618873;54;20025;-65
2021/09/28 14:01:30;;;;;;;5.20;2.05;;;;;;;19.36;43.35;99374.00;2618119;54;20034;-66
2021/09/28 14:04:00;;;;;;;4.50;1.90;;;;;;;19.39;43.91;99368.97;2617812;54;20566;-66
2021/09/28 14:06:33;;;;;;;6.22;2.20;;;;;;;19.34;44.05;99368.84;2618390;54;20052;-66
2021/09/28 14:09:02;;;;;;;6.32;3.00;;;;;;;19.34;44.11;99360.81;2618628;54;20010;-66
2021/09/28 14:11:32;;;;;;;5.63;2.85;;;;;;;19.38;44.00;99361.97;2618835;54;20022;-65
2021/09/28 14:14:02;;;;;;;4.72;1.98;;;;;;;19.38;44.29;99361.16;2618360;54;20053;-66
2021/09/28 14:16:32;;;;;;;5.85;2.40;;;;;;;19.34;43.79;99358.13;2618465;54;20038;-65
2021/09/28 14:19:01;;;;;;;7.03;2.47;;;;;;;19.17;43.82;99357.22;2617816;54;20034;-66
2021/09/28 14:21:34;;;;;;;5.50;2.20;;;;;;;19.07;44.46;99360.50;2618469;54;20038;-66
2021/09/28 14:24:04;;;;;;;5.13;1.45;;;;;;;19.03;44.85;99360.16;2617806;54;20034;-65
2021/09/28 14:26:33;;;;;;;8.88;1.70;;;;;;;18.98;45.50;99356.53;2618189;54;20042;-65
2021/09/28 14:29:03;;;;;;;9.73;1.90;;;;;;;18.92;45.15;99349.44;2618343;54;20030;-64
2021/09/28 14:31:33;;;;;;;4.95;1.80;;;;;;;18.88;44.57;99361.66;2618654;54;20050;-64
2021/09/28 14:34:03;;;;;;;10.38;1.90;;;;;;;18.81;45.00;99343.03;2618222;54;20052;-64
2021/09/28 14:36:35;;;;;;;5.00;2.40;;;;;;;18.81;45.68;99346.50;2618204;54;20134;-66
2021/09/28 14:39:05;;;;;;;5.15;2.28;;;;;;;18.84;45.95;99345.25;2618465;54;20025;-66
2021/09/28 14:41:35;;;;;;;9.18;2.83;;;;;;;18.86;45.46;99351.19;2618793;54;20026;-65
2021/09/28 14:44:06;;;;;;;8.40;2.47;;;;;;;18.86;44.81;99340.47;2618405;54;20034;-66
2021/09/28 14:49:07;;;;;;;6.18;2.10;;;;;;;18.76;45.23;99334.88;2617910;54;20026;-66
2021/09/28 14:51:39;;;;;;;5.43;1.60;;;;;;;18.80;45.28;99333.38;2617699;47;20034;-66
2021/09/28 14:54:09;;;;;;;4.63;1.92;;;;;;;18.72;45.10;99331.84;2617567;54;20038;-66
2021/09/28 14:56:39;;;;;;;6.13;2.50;;;;;;;18.68;44.51;99335.19;2618943;39;20450;-66
2021/09/28 14:59:10;;;;;;;6.28;2.10;;;;;;;18.64;44.74;99329.47;2618871;54;20086;-65
2021/09/28 15:01:42;;;;;;;6.75;2.72;;;;;;;18.62;44.84;99326.25;2619576;54;20024;-65
2021/09/28 15:04:15;;;;;;;7.97;2.60;;;;;;;18.57;44.97;99320.75;2619314;54;20037;-65
2021/09/28 15:06:48;;;;;;;7.15;2.55;;;;;;;18.58;45.19;99321.59;2618751;54;20023;-65
2021/09/28 15:09:18;;;;;;;3.80;1.75;;;;;;;18.54;45.41;99316.69;2618632;47;20029;-65
2021/09/28 15:11:47;;;;;;;4.78;1.95;;;;;;;18.62;45.26;99312.03;2619015;54;20031;-65
2021/09/28 15:14:19;;;;;;;5.35;1.95;;;;;;;18.70;45.32;99311.72;2619307;54;20035;-66
2021/09/28 15:16:49;;;;;;;4.53;1.77;;;;;;;18.73;44.68;99312.03;2619567;54;20041;-65
2021/09/28 15:19:18;;;;;;;8.88;2.72;;;;;;;18.79;44.97;99311.13;2621125;39;20513;-65
2021/09/28 15:21:52;;;;;;;6.13;1.60;;;;;;;18.79;45.22;99313.81;2621245;39;20442;-64
2021/09/28 15:24:22;;;;;;;5.80;2.20;;;;;;;18.72;44.80;99313.09;2621270;54;20018;-64
2021/09/28 15:26:52;;;;;;;7.13;2.08;;;;;;;18.66;45.63;99310.53;2620606;54;20125;-64
2021/09/28 15:29:22;;;;;;;7.38;2.17;;;;;;;18.58;46.07;99311.69;2620727;54;20033;-65
2021/09/28 15:32:05;;;;;;;5.38;2.55;;;;;;;18.51;46.40;99302.94;2621251;54;20561;-65
2021/09/28 15:34:35;;;;;;;6.47;2.55;;;;;;;18.37;46.17;99298.84;2622007;54;20571;-64
2021/09/28 15:37:07;;;;;;;7.75;3.28;;;;;;;18.29;45.59;99300.81;2621689;54;20022;-64
2021/09/28 15:39:37;;;;;;;5.68;3.15;;;;;;;18.20;45.96;99293.34;2621674;39;20438;-65
2021/09/28 15:42:07;;;;;;;6.82;3.53;;;;;;;18.11;45.24;99289.38;2622519;39;20387;-65
2021/09/28 15:44:36;;;;;;;5.65;3.55;;;;;;;18.05;45.98;99288.44;2621739;54;20030;-64
2021/09/28 15:47:06;;;;;;;6.18;3.30;;;;;;;18.00;46.51;99285.63;2620919;39;20572;-64
2021/09/28 15:49:36;;;;;;;7.45;3.47;;;;;;;18.00;46.81;99286.47;2621743;54;20045;-64
2021/09/28 15:52:10;;;;;;;8.13;4.53;;;;;;;18.00;47.25;99286.47;2620920;47;20547;-64
2021/09/28 15:54:39;;;;;;;9.07;3.72;;;;;;;18.01;47.25;99289.97;2620782;51;20023;-64
2021/09/28 15:57:11;;;;;;;6.75;3.50;;;;;;;18.00;47.43;99286.47;2620837;54;20030;-64
2021/09/28 15:59:41;;;;;;;5.53;3.28;;;;;;;18.03;47.83;99287.84;2620588;54;20037;-65
2021/09/28 16:02:11;;;;;;;7.60;4.40;;;;;;;18.05;48.32;99289.25;2621167;54;20041;-65
2021/09/28 16:04:41;;;;;;;9.48;3.92;;;;;;;18.04;48.53;99279.63;2621467;54;20523;-65
2021/09/28 16:07:15;;;;;;;7.53;3.75;;;;;;;17.99;48.78;99275.97;2620811;54;20034;-65
2021/09/28 16:09:46;;;;;;;10.00;4.00;;;;;;;17.85;48.92;99275.38;2620891;47;20066;-65
2021/09/28 16:12:16;;;;;;;6.75;4.05;;;;;;;17.76;49.20;99274.06;2621052;54;20015;-65
2021/09/28 16:14:45;;;;;;;5.38;3.80;;;;;;;17.70;49.67;99278.41;2620833;54;20030;-65
2021/09/28 16:17:15;;;;;;;8.63;5.70;;;;;;;17.64;49.91;99278.53;2621574;54;20034;-66
2021/09/28 16:19:45;;;;;;;7.60;4.43;;;;;;;17.67;50.51;99280.72;2620315;54;20061;-66
2021/09/28 16:22:17;;;;;;;6.15;4.00;;;;;;;17.64;50.62;99268.66;2620682;54;20045;-66
2021/09/28 16:24:47;;;;;;;8.60;5.13;;;;;;;17.56;50.84;99263.63;2621340;54;20056;-65
2021/09/28 16:27:17;;;;;;;8.02;5.30;;;;;;;17.51;51.00;99258.97;2620741;54;20042;-66
2021/09/28 16:29:46;;;;;;;9.40;5.80;;;;;;;17.47;51.64;99254.25;2620816;54;20033;-65
2021/09/28 16:32:16;;;;;;;8.15;5.05;;;;;;;17.41;51.73;99256.00;2621349;54;20031;-65
2021/09/28 16:34:46;;;;;;;11.95;5.82;;;;;;;17.29;52.36;99250.59;2621270;54;20030;-66
2021/09/28 16:37:18;;;;;;;7.70;5.22;;;;;;;17.18;53.00;99253.19;2621240;47;20029;-66
2021/09/28 16:39:48;;;;;;;7.53;5.22;;;;;;;17.09;52.91;99255.38;2621697;39;20417;-66
2021/09/28 16:42:18;;;;;;;10.90;5.63;;;;;;;17.05;53.66;99249.66;2621657;54;20026;-66
2021/09/28 16:44:48;;;;;;;11.18;5.93;;;;;;;17.02;53.68;99262.63;2621942;54;20041;-66
2021/09/28 16:47:17;;;;;;;8.27;5.65;;;;;;;16.92;54.11;99265.03;2621434;54;20181;-66
2021/09/28 16:49:48;;;;;;;7.95;5.25;;;;;;;16.85;54.26;99267.75;2620871;54;20044;-65
2021/09/28 16:52:20;;;;;;;7.47;6.05;;;;;;;16.76;54.66;99266.41;2620615;54;20042;-66
2021/09/28 16:54:50;;;;;;;9.68;6.30;;;;;;;16.64;54.92;99260.97;2620643;54;20629;-65
2021/09/28 16:57:20;;;;;;;7.80;5.85;;;;;;;16.58;55.03;99261.84;2621168;39;20428;-65
2021/09/28 16:59:50;;;;;;;8.05;6.18;;;;;;;16.52;55.69;99260.06;2620242;47;20031;-65
2021/09/28 17:02:19;;;;;;;9.38;8.00;;;;;;;16.45;56.26;99267.28;2619989;54;20121;-66
2021/09/28 17:04:49;;;;;;;11.70;8.55;;;;;;;16.44;56.18;99257.66;2620018;54;20078;-66
2021/09/28 17:07:21;;;;;;;9.35;7.75;;;;;;;16.41;56.15;99260.75;2620474;54;20023;-66
2021/09/28 17:09:51;;;;;;;12.73;8.82;;;;;;;16.36;56.43;99261.41;2619367;47;20022;-66
2021/09/28 17:12:22;;;;;;;9.85;6.30;;;;;;;16.32;57.07;99268.22;2620173;54;20031;-66
2021/09/28 17:14:54;;;;;;;8.00;6.65;;;;;;;16.28;57.09;99272.38;2620156;54;20031;-66
2021/09/28 17:17:24;;;;;;;11.95;8.18;;;;;;;16.21;57.15;99274.28;2619979;54;20039;-66
2021/09/28 17:19:54;;;;;;;13.15;7.93;;;;;;;16.16;57.28;99274.91;2620012;54;20592;-66
2021/09/28 17:22:26;;;;;;;13.25;7.78;;;;;;;16.06;57.85;99271.94;2620332;54;20030;-66
2021/09/28 17:24:55;;;;;;;12.18;6.97;;;;;;;15.95;58.29;99286.75;2620286;54;20038;-67
2021/09/28 17:27:25;;;;;;;8.93;6.80;;;;;;;15.76;59.45;99277.06;2619738;47;20037;-66
2021/09/28 17:29:55;;;;;;;8.60;7.60;;;;;;;15.73;59.78;99282.81;2620003;54;20060;-66
2021/09/28 17:32:25;;;;;;;8.48;7.00;;;;;;;15.75;59.70;99283.41;2620456;54;20546;-65
2021/09/28 17:34:58;;;;;;;13.60;10.95;;;;;;;15.78;59.73;99286.47;2619774;49;20034;-67
2021/09/28 17:37:33;;;;;;;14.73;7.97;;;;;;;15.73;60.43;99285.50;2620378;54;20042;-65
2021/09/28 17:40:02;;;;;;;11.50;7.82;;;;;;;15.73;60.73;99286.31;2619841;54;20039;-64
2021/09/28 17:42:33;;;;;;;9.70;7.20;;;;;;;15.65;60.51;99286.56;2620353;54;20030;-65
2021/09/28 17:45:04;;;;;;;10.68;7.75;;;;;;;15.67;61.05;99279.16;2619742;54;20034;-64
2021/09/28 17:47:34;;;;;;;9.80;7.43;;;;;;;15.68;61.14;99275.47;2620352;54;20566;-64
2021/09/28 17:50:07;;;;;;;9.80;7.50;;;;;;;15.57;61.33;99274.25;2620575;54;20026;-65
2021/09/28 17:52:40;;;;;;;9.80;7.25;;;;;;;15.42;61.53;99273.72;2621215;54;20030;-64
2021/09/28 17:55:18;;;;;;;9.23;6.60;;;;;;;15.29;61.80;99276.44;2621127;54;20038;-64
2021/09/28 17:57:48;;;;;;;8.60;7.68;;;;;;;15.26;62.05;99271.53;2620122;54;20039;-66
2021/09/28 18:00:18;;;;;;;10.60;6.68;;;;;;;15.22;62.30;99276.47;2621171;54;20041;-64
2021/09/28 18:02:48;;;;;;;12.43;7.72;;;;;;;15.26;62.70;99283.00;2622143;54;20023;-65
2021/09/28 18:05:18;;;;;;;11.15;7.93;;;;;;;15.29;62.79;99276.44;2621001;54;20045;-64
2021/09/28 18:07:50;;;;;;;12.82;8.85;;;;;;;15.38;62.62;99275.16;2621325;54;20026;-67
2021/09/28 18:10:19;;;;;;;18.33;11.88;;;;;;;15.39;62.17;99270.66;2620610;47;20043;-66
2021/09/28 18:12:49;;;;;;;8.55;6.90;;;;;;;15.16;63.19;99274.66;2621636;54;20027;-66
2021/09/28 18:15:19;;;;;;;12.30;8.48;;;;;;;15.06;63.87;99272.44;2621547;54;20212;-65
2021/09/28 18:17:49;;;;;;;11.00;7.47;;;;;;;15.03;64.34;99272.03;2621112;54;20030;-66
2021/09/28 18:20:22;;;;;;;10.93;8.35;;;;;;;15.00;64.33;99265.28;2621036;54;20603;-66
2021/09/28 18:22:55;;;;;;;15.73;9.38;;;;;;;15.04;64.61;99269.16;2621145;54;20545;-66
2021/09/28 18:25:25;;;;;;;11.38;8.57;;;;;;;15.04;64.64;99265.69;2621120;54;20030;-65
2021/09/28 18:27:56;;;;;;;12.38;10.10;;;;;;;15.04;64.65;99263.84;2620964;54;20026;-65
2021/09/28 18:30:27;;;;;;;21.40;14.52;;;;;;;15.02;64.42;99265.91;2620604;47;20026;-66
2021/09/28 18:32:57;;;;;;;17.67;12.80;;;;;;;15.02;64.95;99268.56;2621410;54;20034;-66
2021/09/28 18:35:28;;;;;;;12.00;8.95;;;;;;;14.98;65.33;99267.34;2620873;54;20034;-66
2021/09/28 18:38:01;;;;;;;12.38;9.25;;;;;;;14.94;65.26;99274.13;2620178;46;20057;-73
2021/09/28 18:40:41;;;;;;;11.63;8.90;;;;;;;14.96;65.20;99268.59;2622646;54;20034;-71
2021/09/28 18:43:16;;;;;;;10.95;9.65;;;;;;;14.88;65.41;99263.47;2622318;47;20745;-73
2021/09/28 18:45:46;;;;;;;11.27;10.15;;;;;;;14.81;66.38;99264.31;2622258;54;20130;-71
2021/09/28 18:48:19;;;;;;;18.45;10.60;;;;;;;14.76;66.48;99261.47;2622813;54;20035;-70
2021/09/28 18:50:51;;;;;;;11.30;9.95;;;;;;;14.73;66.40;99261.06;2621351;47;20090;-70
2021/09/28 18:53:25;;;;;;;16.90;11.35;;;;;;;14.71;67.10;99263.94;2621963;54;20034;-71
2021/09/28 18:55:58;;;;;;;15.93;12.55;;;;;;;14.73;66.76;99263.72;2622726;47;20049;-70
2021/09/28 18:58:33;;;;;;;;;;;;;;;14.66;66.53;99263.75;2622332;51;20033;-70
2021/09/28 19:01:04;;;;;;;;;;;;;;;14.57;66.82;99264.97;2622021;54;19938;-71
2021/09/28 19:03:39;;;;;;;11.82;9.00;;;;;;;14.50;67.50;99266.84;2621113;47;19938;-70
2021/09/28 19:06:34;;;;;;;14.10;9.82;;;;;;;14.46;67.51;99260.28;2622332;47;20027;-74
2021/09/28 19:09:10;;;;;;;;;;;;;;;14.37;67.79;99259.66;2619943;47;20538;-73
2021/09/28 19:11:42;;;;;;;11.82;10.00;;;;;;;14.30;68.38;99269.47;2622812;54;19946;-71
2021/09/28 19:14:13;;;;;;;12.85;9.82;;;;;;;14.23;68.44;99253.50;2621815;54;20034;-71
2021/09/28 19:16:45;;;;;;;15.00;9.82;;;;;;;14.12;68.93;99254.97;2622444;47;20046;-72
2021/09/28 19:19:18;;;;;;;12.10;10.13;;;;;;;14.11;69.50;99250.66;2623358;54;20061;-72
2021/09/28 19:21:50;;;;;;;10.38;8.65;;;;;;;14.10;69.15;99251.69;2622749;47;20023;-72
2021/09/28 19:24:24;;;;;;;14.27;9.63;;;;;;;14.01;69.95;99236.97;2622341;47;20087;-71
2021/09/28 19:26:57;;;;;;;14.40;9.43;;;;;;;13.92;69.75;99246.16;2623387;54;20031;-71
2021/09/28 19:29:31;;;;;;;11.43;8.60;;;;;;;13.82;70.07;99237.75;2622889;54;20038;-71
2021/09/28 19:32:02;;;;;;;14.73;9.63;;;;;;;13.78;70.66;99236.53;2622932;54;20286;-71
2021/09/28 19:34:32;;;;;;;10.88;8.93;;;;;;;13.68;70.41;99231.63;2622838;54;20038;-70
2021/09/28 19:37:06;;;;;;;10.00;8.35;;;;;;;13.61;70.98;99239.56;2622404;54;20033;-71
2021/09/28 19:39:40;;;;;;;10.15;8.45;;;;;;;13.60;71.01;99245.09;2624089;54;20027;-71
2021/09/28 19:42:12;;;;;;;10.70;9.57;;;;;;;13.56;71.04;99244.66;2623323;47;20087;-70
2021/09/28 19:44:43;;;;;;;11.50;8.10;;;;;;;13.56;71.22;99231.38;2623040;54;20027;-71
2021/09/28 19:47:13;;;;;;;14.20;8.98;;;;;;;13.61;71.15;99233.44;2622457;46;20054;-71
2021/09/28 19:49:45;;;;;;;12.82;10.80;;;;;;;13.63;70.81;99234.88;2622428;54;20037;-69
2021/09/28 19:52:19;;;;;;;12.88;10.07;;;;;;;13.65;70.97;99239.97;2622784;47;20035;-71
2021/09/28 19:55:00;;;;;;;13.80;11.73;;;;;;;13.54;70.90;99229.94;2622702;47;20174;-72
2021/09/28 19:57:35;;;;;;;12.25;10.45;;;;;;;13.43;70.99;99228.72;2623222;54;20031;-70
2021/09/28 20:00:17;;;;;;;11.18;9.77;;;;;;;13.42;71.44;99235.00;2622457;47;20045;-70
2021/09/28 20:03:00;;;;;;;12.40;10.93;;;;;;;13.43;71.68;99235.84;2623034;54;20039;-71
2021/09/28 20:38:23;;;;;;;11.48;8.88;;;;;;;13.20;71.71;99218.38;2624071;47;20026;-70
2021/09/28 20:40:53;;;;;;;10.23;8.73;;;;;;;13.23;71.81;99217.22;2625003;54;20033;-70
2021/09/28 20:43:25;;;;;;;9.30;8.30;;;;;;;13.22;71.54;99220.84;2625002;54;20069;-70
2021/09/28 20:45:55;;;;;;;11.27;7.85;;;;;;;13.14;71.63;99211.19;2624217;47;20026;-71
2021/09/28 20:48:28;;;;;;;9.55;8.52;;;;;;;13.12;71.88;99211.41;2623892;54;20569;-70
2021/09/28 20:50:59;;;;;;;13.60;9.32;;;;;;;13.09;72.04;99216.31;2623159;54;20027;-70
2021/09/28 20:53:29;;;;;;;12.10;8.93;;;;;;;13.05;72.04;99217.72;2623080;54;20584;-71
2021/09/28 20:56:02;;;;;;;14.57;8.82;;;;;;;13.05;72.25;99210.56;2623160;54;20034;-70
2021/09/28 20:58:37;;;;;;;15.32;9.20;;;;;;;13.01;71.76;99211.97;2622951;47;20031;-69
2021/09/28 21:01:07;;;;;;;10.63;9.13;;;;;;;13.00;71.82;99204.22;2623303;54;20026;-71
2021/09/28 21:03:37;;;;;;;12.85;9.98;;;;;;;12.97;72.20;99200.13;2622092;54;20043;-73
2021/09/28 21:06:06;;;;;;;12.15;8.55;;;;;;;12.95;72.38;99194.22;2619750;47;20026;-71
2021/09/28 21:08:36;;;;;;;14.18;9.52;;;;;;;12.91;71.97;99186.84;2620242;54;20023;-72
2021/09/28 21:11:06;;;;;;;14.60;10.52;;;;;;;12.81;72.61;99180.06;2619384;54;20065;-72
2021/09/28 21:13:39;;;;;;;10.18;9.15;;;;;;;12.73;73.13;99171.44;2619377;47;20035;-71
2021/09/28 21:16:09;;;;;;;12.50;9.02;;;;;;;12.75;72.70;99177.38;2619573;54;20621;-71
2021/09/28 21:18:38;;;;;;;10.55;8.82;;;;;;;12.81;73.13;99177.41;2620477;47;20027;-72
2021/09/28 21:21:08;;;;;;;12.98;8.75;;;;;;;12.84;72.88;99173.53;2624237;54;20648;-71
2021/09/28 21:23:38;;;;;;;9.18;8.38;;;;;;;12.83;72.53;99167.41;2620840;39;20718;-72
2021/09/28 21:26:08;;;;;;;10.98;8.63;;;;;;;12.81;72.00;99171.28;2620261;54;20042;-70
2021/09/28 21:28:40;;;;;;;13.43;8.80;;;;;;;12.77;72.33;99167.38;2619575;54;20038;-71
2021/09/28 21:31:10;;;;;;;14.55;9.07;;;;;;;12.72;72.61;99165.31;2620261;47;20026;-70
2021/09/28 21:33:46;;;;;;;19.05;8.70;;;;;;;12.70;72.89;99171.88;2620547;54;20035;-70
2021/09/28 21:36:22;;;;;;;13.27;9.48;;;;;;;12.69;72.73;99165.72;2621560;46;20034;-71
2021/09/28 21:38:52;;;;;;;10.43;8.90;;;;;;;12.65;72.96;99164.47;2622853;47;20041;-70
2021/09/28 21:41:22;;;;;;;10.70;8.00;;;;;;;12.60;72.87;99162.41;2623816;47;20035;-69
2021/09/28 21:43:54;;;;;;;9.63;8.20;;;;;;;12.50;73.12;99158.50;2621752;47;20026;-70
2021/09/28 21:46:24;;;;;;;10.23;7.50;;;;;;;12.51;73.02;99160.13;2619708;54;20558;-70
2021/09/28 21:48:53;;;;;;;10.40;8.15;;;;;;;12.58;73.46;99158.34;2619870;54;20118;-71
2021/09/28 21:51:25;;;;;;;9.00;7.07;;;;;;;12.65;72.72;99164.47;2619006;54;20033;-72
2021/09/28 21:53:55;;;;;;;9.80;6.95;;;;;;;12.65;72.81;99156.50;2618229;47;20027;-71
2021/09/28 21:56:24;;;;;;;9.50;7.03;;;;;;;12.66;73.03;99160.00;2618885;47;20072;-70
2021/09/28 21:58:57;;;;;;;9.55;7.00;;;;;;;12.63;72.58;99161.22;2621224;54;20030;-71
2021/09/28 22:01:26;;;;;;;11.68;7.07;;;;;;;12.61;72.54;99150.81;2623168;54;20035;-70
2021/09/28 22:03:56;;;;;;;9.35;6.97;;;;;;;12.59;72.61;99152.81;2625084;54;20038;-70
2021/09/28 22:06:26;;;;;;;6.93;6.20;;;;;;;12.55;72.66;99154.22;2623872;51;20037;-71
2021/09/28 22:08:56;;;;;;;10.32;7.55;;;;;;;12.59;72.68;99154.66;2623177;54;20028;-71
2021/09/28 22:11:25;;;;;;;10.48;6.72;;;;;;;12.53;72.81;99144.81;2623394;47;20057;-71
2021/09/28 22:13:58;;;;;;;11.00;6.88;;;;;;;12.48;73.01;99141.94;2624450;39;20532;-69
2021/09/28 22:16:27;;;;;;;12.15;7.22;;;;;;;12.48;73.25;99144.59;2623719;54;20041;-69
2021/09/28 22:18:57;;;;;;;7.72;6.45;;;;;;;12.50;73.25;99145.25;2623587;54;20078;-68
2021/09/28 22:21:27;;;;;;;8.23;6.22;;;;;;;12.52;73.25;99144.00;2623569;47;20605;-69
2021/09/28 22:23:56;;;;;;;7.47;6.38;;;;;;;12.58;73.69;99147.72;2623926;54;20034;-70
2021/09/28 22:26:26;;;;;;;8.02;6.40;;;;;;;12.64;73.05;99142.44;2624151;39;20446;-69
2021/09/28 22:28:59;;;;;;;9.88;6.35;;;;;;;12.73;73.42;99144.91;2625045;39;20437;-70
2021/09/28 22:31:29;;;;;;;9.30;6.72;;;;;;;12.80;73.00;99135.97;2623872;39;20433;-70
2021/09/28 22:33:59;;;;;;;8.38;6.35;;;;;;;12.82;72.92;99133.94;2623482;54;20553;-70
2021/09/28 22:36:29;;;;;;;10.20;7.15;;;;;;;12.76;72.35;99140.03;2623981;51;20034;-70
2021/09/28 22:38:58;;;;;;;10.73;6.50;;;;;;;12.66;72.45;99136.94;2623525;47;20038;-70
2021/09/28 22:41:28;;;;;;;10.10;6.22;;;;;;;12.69;72.97;99138.38;2623267;39;20085;-69
2021/09/28 22:44:00;;;;;;;8.85;6.53;;;;;;;12.71;73.07;99136.34;2621788;54;20561;-71
2021/09/28 22:46:32;;;;;;;8.80;6.43;;;;;;;12.73;72.71;99136.97;2620557;39;20410;-69
2021/09/28 22:49:01;;;;;;;9.50;6.50;;;;;;;12.61;73.21;99137.56;2618563;54;20053;-70
2021/09/28 22:51:31;;;;;;;8.13;6.93;;;;;;;12.60;73.44;99129.78;2620116;39;20430;-68
2021/09/28 22:54:01;;;;;;;8.13;6.55;;;;;;;12.64;72.76;99133.66;2620354;54;20030;-69
2021/09/28 22:56:31;;;;;;;9.23;5.97;;;;;;;12.67;72.85;99125.31;2622477;39;20440;-70
2021/09/28 22:59:04;;;;;;;7.80;6.63;;;;;;;12.66;72.93;99125.53;2624701;54;20548;-70
2021/09/28 23:01:34;;;;;;;9.70;6.53;;;;;;;12.64;72.98;99115.91;2624728;39;20375;-71
2021/09/28 23:04:04;;;;;;;12.15;6.45;;;;;;;12.60;73.15;99121.81;2624344;54;20046;-69
2021/09/28 23:06:34;;;;;;;7.30;6.50;;;;;;;12.61;73.08;99118.97;2623836;54;20037;-71
2021/09/28 23:09:03;;;;;;;10.82;6.03;;;;;;;12.69;73.17;99117.16;2624626;54;20018;-71
2021/09/28 23:11:33;;;;;;;14.18;6.40;;;;;;;12.77;73.27;99112.47;2624186;54;20026;-70
2021/09/28 23:14:05;;;;;;;9.38;6.47;;;;;;;12.72;72.34;99106.97;2624024;54;20545;-70
2021/09/28 23:16:35;;;;;;;10.20;6.63;;;;;;;12.54;72.96;99104.06;2624217;54;20526;-70
2021/09/28 23:19:05;;;;;;;9.88;5.82;;;;;;;12.47;73.14;99100.56;2624938;54;20035;-71
2021/09/28 23:21:35;;;;;;;6.60;5.78;;;;;;;12.46;73.49;99097.09;2624353;54;20573;-72
2021/09/28 23:24:06;;;;;;;10.07;6.55;;;;;;;12.49;73.85;99104.66;2624504;54;20042;-70
2021/09/28 23:26:35;;;;;;;9.13;6.32;;;;;;;12.53;73.41;99099.75;2625047;54;20038;-70
2021/09/28 23:29:08;;;;;;;8.20;6.25;;;;;;;12.55;73.13;99100.38;2624916;54;20037;-71
2021/09/28 23:31:37;;;;;;;9.13;6.47;;;;;;;12.49;72.98;99101.16;2622978;47;20035;-71
2021/09/28 23:34:07;;;;;;;10.10;5.70;;;;;;;12.40;73.27;99109.28;2624270;54;20049;-69
2021/09/28 23:36:37;;;;;;;9.73;6.55;;;;;;;12.32;73.54;99111.28;2624900;54;20030;-70
2021/09/28 23:39:06;;;;;;;13.98;7.07;;;;;;;12.23;73.84;99110.63;2624136;54;20026;-70
2021/09/28 23:41:36;;;;;;;10.02;6.35;;;;;;;12.20;73.49;99103.06;2623563;47;20578;-70
2021/09/28 23:44:09;;;;;;;7.30;6.55;;;;;;;12.21;74.13;99111.84;2623238;47;20038;-70
2021/09/28 23:46:39;;;;;;;8.00;6.38;;;;;;;12.16;73.78;99107.09;2624899;54;20133;-71
2021/09/28 23:49:09;;;;;;;7.93;7.10;;;;;;;12.17;74.03;99113.25;2624724;54;20592;-70
2021/09/28 23:51:38;;;;;;;8.40;6.40;;;;;;;12.13;74.04;99104.88;2624950;54;20531;-70
2021/09/28 23:54:09;;;;;;;9.30;6.43;;;;;;;12.17;73.93;99108.78;2625289;54;20039;-70
2021/09/28 23:56:41;;;;;;;7.75;5.68;;;;;;;12.17;73.87;99106.13;2625701;54;20022;-70
2021/09/28 23:59:14;;;;;;;8.63;5.63;;;;;;;12.14;74.10;99103.84;2624630;47;20033;-70
